x

Buzzards Bay, Ma (buzm3) Weather Station

8:00 - Mon 25th Sep 2017 All times are EDT. -4 hours from GMT.

  • Wind
    5mph, 6mph gusts
  • Ar Temp 65°f
  • Sea Pressure 1018.5mb
  • Buzzards Bay, Ma
  • Buzzards Bay, Ma

More Historic Weather Station data

Upgrade to MSW Pro to gain access to the past 30 days of data for over 8000 Wavebouys and Weather Stations around the globe.

Join

Comparision Forecast

View Surf forecast
   
Seg 09/25 8:00 5 6 mph 1018.5mb 65f
7:00 7 8 mph 1018.3mb 65f
6:00 5 6 mph 1017.8mb 66f
5:00 3 3 mph 1017.3mb 68f
4:00 5 5 mph 1017.4mb 67f
3:00 6 6 mph 1017.4mb 67f
2:00 8 8 mph 1017.7mb 68f
1:00 3 3 mph 1017.8mb 67f
12:00 3 3 mph 1017.7mb 69f
Dom 09/24 11:00 2 2 mph 1017.9mb 69f
10:00 3 3 mph 1018mb 69f
9:00 8 8 mph 1017.7mb 68f
8:00 7 7 mph 1017.6mb 68f
7:00 5 5 mph 1017mb 68f
6:00 7 8 mph 1016.9mb 69f
5:00 5 5 mph 1016.9mb 70f
4:00 5 6 mph 1017.1mb 70f
3:00 6 6 mph 1017.4mb 71f
2:00 1 2 mph 1017.8mb 71f
1:00 3 3 mph 1017.8mb 71f
12:00 7 7 mph 1017.9mb 69f
11:00 3 3 mph 1018.3mb 67f
10:00  -  0 mph 1018.3mb 69f
9:00 5 5 mph 1018.1mb 65f
8:00 3 3 mph 1018.1mb 65f
7:00 5 5 mph 1017.8mb 64f
6:00 7 7 mph 1017.5mb 64f
5:00 7 8 mph 1017.1mb 63f
4:00 6 6 mph 1016.9mb 62f
3:00 6 6 mph 1016.6mb 62f
2:00 10 11 mph 1016.6mb 61f
1:00 9 9 mph 1016.9mb 62f
12:00 9 9 mph 1016.9mb 63f
Sáb 09/23 11:00 10 10 mph 1017.2mb 63f
10:00 11 11 mph 1017.1mb 63f
9:00 11 13 mph 1017.2mb 64f
8:00 14 15 mph 1016.7mb 64f
7:00 15 16 mph 1016mb 65f
6:00 17 18 mph 1015.8mb 67f
5:00 17 18 mph 1015.5mb 67f
4:00 17 18 mph 1015.4mb 67f
3:00 18 20 mph 1015.6mb 67f
2:00 18 20 mph 1015.5mb 67f
1:00 21 22 mph 1015.3mb 65f
12:00 22 24 mph 1015.5mb 64f
11:00 23 25 mph 1015.4mb 63f
10:00 20 22 mph 1014.9mb 63f
9:00 21 24 mph 1014.6mb 62f
8:00 26 29 mph 1013.5mb 62f
7:00 26 29 mph 1013.4mb 61f
6:00 26 30 mph 1013.1mb 62f
5:00 29 31 mph 1012.5mb 62f
4:00 30 32 mph 1012mb 62f
3:00 29 31 mph 1011.9mb 62f
2:00 31 36 mph 1012mb 62f
1:00 29 32 mph 1012.1mb 62f
12:00 29 31 mph 1012mb 62f
Sex 09/22 11:00 32 37 mph 1011.8mb 62f
10:00 32 36 mph 1011.7mb 62f
9:00 31 34 mph 1011.9mb 61f
8:00 32 36 mph 1011.5mb 61f
7:00 36 39 mph 1010.9mb 60f
6:00 33 36 mph 1011.1mb 61f
5:00 34 38 mph 1011mb 60f
4:00 36 39 mph 1010.9mb 60f
3:00 37 39 mph 1010.9mb 59f
2:00 40 45 mph 1010.7mb 59f
1:00 43 46 mph 1011mb 58f
12:00 37 41 mph 1011.4mb 59f
11:00 40 43 mph 1011.4mb 59f
10:00 37 40 mph 1011.2mb 60f
9:00 36 41 mph 1011.3mb 60f
8:00 43 48 mph 1010.4mb 60f
7:00 43 51 mph 1010.3mb 60f
6:00 41 47 mph 1010.1mb 59f
5:00 39 46 mph 1010.2mb 60f
4:00 39 45 mph 1010.2mb 59f
3:00 43 48 mph 1010mb 60f
2:00 45 51 mph 1010.3mb 60f
1:00 46 52 mph 1010.7mb 60f
12:00 53 59 mph 1010mb 61f
Qui 09/21 11:00 38 43 mph 1011.5mb 65f
10:00 44 47 mph 1011.6mb 65f
9:00 44 48 mph 1011.7mb 63f
8:00 49 57 mph 1011.4mb 64f
7:00 43 53 mph 1012mb 67f
6:00 46 51 mph 1011.3mb 68f
5:00 46 54 mph 1011.3mb 67f
4:00 41 48 mph 1011.1mb 67f
3:00 39 43 mph 1011.2mb 67f
2:00 40 49 mph 1011.2mb 67f